Koniz, Switzerland
Current Conditions -  °F | °C
As of 1:50 PM on Thursday 23 Oct 2014 (Local Time) from LSZB Reporting Station
Broken Clouds Broken Clouds  
Wind Chill: 52°   Ceiling: 4800
Heat Index: 52°   Visibility: 6mi
Dew Point: 37°   Wind: 7mph
Humidity: 58%   Direction: 160°SSE
Pressure: 30.27"   Gusts: NA
Location:  46.93°N, 7.42°E
Report Text: LSZB 231150Z 16006KT 120V200 9999 SCT035 BKN048 11/03 Q1025 NOSIG
Loading
Personal Weather Stations






























Interactive Weather Map
Tropical Storm Tracking
New forecast layout! Learn more

10-Day Weather Forecast

Advertisements
Track Severe Weather on mobile